createdAt,value
2019-06-26T00:02:13.676Z,3.20
2019-06-26T00:05:04.703Z,3.50
2019-06-26T00:07:35.770Z,4.33
2019-06-26T00:10:07.611Z,3.72
2019-06-26T00:12:39.343Z,3.20
2019-06-26T00:15:10.663Z,2.90
2019-06-26T00:17:41.592Z,3.15
2019-06-26T00:20:13.097Z,2.72
2019-06-26T00:22:44.202Z,3.80
2019-06-26T00:25:16.882Z,3.42
2019-06-26T00:27:47.605Z,3.17
2019-06-26T00:30:18.781Z,3.83
2019-06-26T00:32:49.542Z,2.92
2019-06-26T00:35:20.254Z,3.35
2019-06-26T00:37:51.109Z,3.27
2019-06-26T00:40:21.776Z,3.45
2019-06-26T00:42:52.386Z,3.02
2019-06-26T00:45:23.082Z,6.80
2019-06-26T00:47:53.678Z,2.62
2019-06-26T00:50:24.458Z,2.30
2019-06-26T00:52:55.165Z,2.58
2019-06-26T00:55:25.906Z,3.90
2019-06-26T00:57:56.608Z,2.42
2019-06-26T01:00:29.834Z,2.50
2019-06-26T01:03:00.707Z,3.00
2019-06-26T01:05:31.407Z,4.33
2019-06-26T01:08:02.281Z,2.83
2019-06-26T01:10:33.073Z,3.05
2019-06-26T01:13:03.727Z,2.65
2019-06-26T01:15:34.375Z,2.50
2019-06-26T01:18:04.981Z,2.85
2019-06-26T01:20:35.973Z,2.98
2019-06-26T01:23:07.145Z,2.70
2019-06-26T01:25:39.167Z,2.92
2019-06-26T01:28:09.905Z,2.92
2019-06-26T01:30:40.696Z,2.98
2019-06-26T01:33:11.525Z,3.00
2019-06-26T01:35:42.211Z,2.50
2019-06-26T01:38:13.005Z,2.35
2019-06-26T01:40:43.849Z,2.25
2019-06-26T01:43:14.577Z,2.17
2019-06-26T01:45:45.321Z,2.60
2019-06-26T01:48:16.087Z,2.33
2019-06-26T01:50:46.692Z,3.27
2019-06-26T01:53:17.339Z,3.40
2019-06-26T01:55:47.992Z,4.35
2019-06-26T01:58:18.775Z,4.30
2019-06-26T02:00:49.482Z,3.80
2019-06-26T02:03:20.226Z,2.95
2019-06-26T02:05:50.926Z,3.35
2019-06-26T02:08:21.617Z,2.70
2019-06-26T02:10:52.495Z,2.40
2019-06-26T02:13:27.319Z,2.60
2019-06-26T02:16:02.876Z,2.40
2019-06-26T02:18:36.198Z,3.45
2019-06-26T02:21:07.034Z,2.60
2019-06-26T02:23:38.133Z,2.15
2019-06-26T02:26:10.295Z,2.80
2019-06-26T02:28:41.066Z,2.15
2019-06-26T02:31:12.029Z,2.67
2019-06-26T02:33:44.045Z,2.65
2019-06-26T02:36:14.710Z,2.75
2019-06-26T02:38:47.098Z,2.55
2019-06-26T02:41:17.416Z,2.30
2019-06-26T02:43:48.073Z,2.02
2019-06-26T02:46:18.989Z,2.27
2019-06-26T02:48:49.676Z,2.15
2019-06-26T02:51:20.334Z,2.15
2019-06-26T02:53:51.172Z,2.30
2019-06-26T02:56:21.846Z,2.20
2019-06-26T02:58:52.681Z,2.10
2019-06-26T03:01:23.412Z,2.45
2019-06-26T03:03:54.212Z,2.50
2019-06-26T03:06:24.913Z,2.25
2019-06-26T03:08:55.567Z,2.20
2019-06-26T03:11:26.354Z,1.85
2019-06-26T03:13:56.990Z,2.12
2019-06-26T03:16:27.610Z,2.35
2019-06-26T03:18:58.229Z,2.22
2019-06-26T03:21:28.941Z,2.30
2019-06-26T03:24:00.250Z,2.22
2019-06-26T03:26:32.275Z,2.60
2019-06-26T03:29:05.683Z,2.90
2019-06-26T03:31:36.721Z,1.95
2019-06-26T03:34:09.310Z,2.02
2019-06-26T03:36:40.022Z,1.80
2019-06-26T03:39:10.856Z,3.25
2019-06-26T03:41:41.763Z,2.22
2019-06-26T03:44:12.447Z,2.05
2019-06-26T03:46:43.358Z,2.15
2019-06-26T03:49:14.221Z,2.10
2019-06-26T03:51:44.931Z,1.85
2019-06-26T03:54:15.637Z,1.57
2019-06-26T03:56:46.471Z,1.62
2019-06-26T03:59:17.452Z,1.72
2019-06-26T04:01:48.177Z,1.60
2019-06-26T04:04:18.940Z,1.67
2019-06-26T04:06:49.593Z,1.52
2019-06-26T04:09:20.192Z,1.90
2019-06-26T04:11:50.880Z,1.90
2019-06-26T04:14:21.532Z,2.15
2019-06-26T04:16:52.236Z,1.62
2019-06-26T04:19:22.946Z,1.50
2019-06-26T04:21:53.647Z,1.57
2019-06-26T04:24:24.994Z,1.70
2019-06-26T04:26:57.056Z,1.57
2019-06-26T04:29:27.885Z,1.52
2019-06-26T04:31:58.652Z,1.87
2019-06-26T04:34:29.354Z,1.60
2019-06-26T04:37:00.048Z,1.77
2019-06-26T04:39:30.741Z,1.32
2019-06-26T04:42:01.463Z,1.40
2019-06-26T04:44:32.099Z,1.60
2019-06-26T04:47:02.828Z,1.22
2019-06-26T04:49:33.510Z,1.22
2019-06-26T04:52:04.230Z,1.17
2019-06-26T04:54:35.201Z,1.32
2019-06-26T04:57:06.008Z,1.20
2019-06-26T04:59:36.712Z,1.82
2019-06-26T05:02:07.462Z,1.40
2019-06-26T05:04:38.123Z,1.40
2019-06-26T05:07:08.947Z,1.17
2019-06-26T05:09:39.695Z,1.55
2019-06-26T05:12:10.336Z,1.30
2019-06-26T05:14:41.032Z,1.30
2019-06-26T05:17:11.667Z,1.50
2019-06-26T05:19:42.480Z,1.40
2019-06-26T05:22:13.259Z,1.40
2019-06-26T05:24:46.422Z,1.22
2019-06-26T05:27:17.399Z,1.40
2019-06-26T05:29:48.198Z,1.25
2019-06-26T05:32:19.037Z,1.60
2019-06-26T05:34:49.655Z,1.77
2019-06-26T05:37:20.311Z,1.30
2019-06-26T05:39:54.502Z,1.80
2019-06-26T05:42:23.088Z,1.75
2019-06-26T05:44:53.976Z,1.87
2019-06-26T05:47:24.763Z,1.55
2019-06-26T05:49:55.449Z,1.90
2019-06-26T05:52:26.419Z,1.70
2019-06-26T05:54:57.230Z,1.37
2019-06-26T05:57:28.037Z,1.57
2019-06-26T05:59:58.753Z,1.70
2019-06-26T06:02:29.441Z,1.50
2019-06-26T06:05:00.143Z,1.25
2019-06-26T06:07:30.818Z,1.77
2019-06-26T06:10:01.624Z,1.40
2019-06-26T06:12:32.332Z,1.27
2019-06-26T06:15:03.085Z,1.70
2019-06-26T06:17:33.812Z,1.52
2019-06-26T06:20:04.761Z,1.85
2019-06-26T06:22:35.521Z,1.55
2019-06-26T06:25:07.240Z,1.72
2019-06-26T06:27:39.254Z,1.70
2019-06-26T06:30:09.995Z,1.57
2019-06-26T06:32:40.589Z,2.47
2019-06-26T06:35:11.364Z,1.50
2019-06-26T06:37:42.010Z,1.55
2019-06-26T06:40:14.501Z,1.82
2019-06-26T06:42:44.795Z,1.50
2019-06-26T06:45:16.086Z,1.50
2019-06-26T06:47:47.062Z,1.40
2019-06-26T06:50:17.713Z,1.35
2019-06-26T06:52:48.379Z,1.37
2019-06-26T06:55:19.110Z,1.50
2019-06-26T06:57:49.897Z,1.42
2019-06-26T07:00:20.935Z,1.50
2019-06-26T07:02:51.654Z,1.57
2019-06-26T07:05:22.405Z,1.75
2019-06-26T07:07:53.101Z,1.70
2019-06-26T07:10:24.045Z,2.00
2019-06-26T07:12:54.750Z,1.90
2019-06-26T07:15:25.407Z,1.90
2019-06-26T07:17:56.409Z,1.72
2019-06-26T07:20:27.166Z,1.72
2019-06-26T07:22:57.895Z,2.22
2019-06-26T07:25:28.924Z,1.77
2019-06-26T07:28:01.959Z,1.80
2019-06-26T07:30:32.736Z,1.70
2019-06-26T07:33:03.605Z,1.92
2019-06-26T07:35:34.726Z,2.15
2019-06-26T07:38:05.482Z,1.87
2019-06-26T07:40:36.193Z,1.20
2019-06-26T07:43:06.855Z,1.60
2019-06-26T07:45:37.561Z,1.52
2019-06-26T07:48:08.238Z,1.60
2019-06-26T07:50:39.275Z,1.55
2019-06-26T07:53:09.863Z,1.30
2019-06-26T07:55:40.884Z,2.00
2019-06-26T07:58:12.823Z,1.80
2019-06-26T08:00:43.480Z,1.77
2019-06-26T08:03:14.257Z,1.35
2019-06-26T08:05:44.962Z,1.90
2019-06-26T08:08:15.619Z,1.77
2019-06-26T08:10:46.335Z,2.27
2019-06-26T08:13:17.023Z,1.85
2019-06-26T08:15:47.914Z,2.17
2019-06-26T08:18:18.657Z,1.85
2019-06-26T08:21:07.278Z,1.70
2019-06-26T08:23:21.427Z,1.98
2019-06-26T08:25:52.309Z,1.85
2019-06-26T08:28:25.967Z,1.67
2019-06-26T08:30:56.687Z,1.60
2019-06-26T08:33:27.294Z,1.52
2019-06-26T08:35:57.952Z,1.57
2019-06-26T08:38:28.584Z,1.42
2019-06-26T08:40:59.374Z,1.40
2019-06-26T08:43:31.492Z,1.85
2019-06-26T08:46:01.995Z,1.57
2019-06-26T08:48:39.386Z,1.98
2019-06-26T08:51:04.689Z,2.08
2019-06-26T08:53:35.525Z,1.50
2019-06-26T08:56:06.405Z,1.37
2019-06-26T08:58:37.112Z,1.50
2019-06-26T09:01:07.934Z,1.85
2019-06-26T09:03:41.880Z,2.20
2019-06-26T09:06:10.790Z,2.45
2019-06-26T09:08:41.483Z,1.77
2019-06-26T09:11:12.585Z,1.70
2019-06-26T09:13:44.024Z,2.10
2019-06-26T09:16:15.438Z,1.67
2019-06-26T09:18:46.277Z,1.80
2019-06-26T09:21:16.967Z,1.85
2019-06-26T09:23:47.556Z,1.90
2019-06-26T09:26:19.538Z,2.10
2019-06-26T09:28:52.163Z,2.50
2019-06-26T09:33:53.550Z,1.85
2019-06-26T09:36:24.269Z,1.60
2019-06-26T09:38:57.902Z,1.60
2019-06-26T09:41:26.963Z,1.65
2019-06-26T09:43:57.742Z,2.05
2019-06-26T09:46:29.431Z,1.85
2019-06-26T09:49:00.089Z,1.82
2019-06-26T09:51:30.769Z,1.70
2019-06-26T09:54:01.356Z,1.55
2019-06-26T09:56:32.114Z,1.57
2019-06-26T09:59:02.753Z,1.52
2019-06-26T10:01:33.691Z,1.70
2019-06-26T10:04:04.587Z,1.70
2019-06-26T10:06:35.377Z,1.67
2019-06-26T10:09:08.545Z,1.62
2019-06-26T10:11:39.675Z,1.82
2019-06-26T10:14:10.383Z,1.98
2019-06-26T10:16:41.071Z,2.00
2019-06-26T10:19:11.762Z,2.60
2019-06-26T10:21:42.682Z,2.00
2019-06-26T10:24:13.351Z,2.00
2019-06-26T10:26:44.519Z,1.75
2019-06-26T10:29:17.334Z,1.62
2019-06-26T10:31:47.985Z,1.65
2019-06-26T10:34:18.774Z,1.50
2019-06-26T10:36:49.436Z,1.70
2019-06-26T10:39:20.093Z,1.57
2019-06-26T10:41:54.593Z,1.50
2019-06-26T10:44:22.753Z,1.57
2019-06-26T10:46:53.642Z,1.80
2019-06-26T10:49:27.598Z,2.05
2019-06-26T10:51:56.505Z,2.50
2019-06-26T10:54:27.189Z,1.87
2019-06-26T10:56:57.880Z,2.08
2019-06-26T10:59:28.739Z,2.10
2019-06-26T11:01:59.435Z,2.27
2019-06-26T11:04:30.146Z,2.27
2019-06-26T11:07:00.853Z,2.02
2019-06-26T11:09:31.614Z,2.20
2019-06-26T11:12:02.469Z,1.90
2019-06-26T11:14:33.234Z,2.00
2019-06-26T11:17:03.834Z,2.00
2019-06-26T11:19:43.918Z,2.50
2019-06-26T11:22:06.571Z,2.08
2019-06-26T11:24:37.983Z,2.05
2019-06-26T11:27:09.826Z,2.40
2019-06-26T11:29:41.930Z,2.27
2019-06-26T11:32:12.669Z,2.00
2019-06-26T11:34:43.304Z,2.30
2019-06-26T11:37:14.077Z,2.50
2019-06-26T11:39:44.673Z,2.42
2019-06-26T11:42:15.524Z,2.15
2019-06-26T11:44:46.255Z,2.27
2019-06-26T11:47:16.941Z,1.87
2019-06-26T11:49:59.463Z,2.02
2019-06-26T11:52:19.792Z,1.85
2019-06-26T11:55:02.139Z,2.33
2019-06-26T11:57:22.681Z,2.25
2019-06-26T11:59:53.376Z,2.33
2019-06-26T12:02:24.179Z,2.15
2019-06-26T12:04:54.904Z,2.60
2019-06-26T12:07:25.612Z,2.40
2019-06-26T12:09:56.333Z,2.45
2019-06-26T12:12:27.064Z,2.15
2019-06-26T12:14:57.815Z,2.75
2019-06-26T12:17:28.541Z,3.15
2019-06-26T12:20:13.645Z,3.50
2019-06-26T12:22:32.531Z,3.30
2019-06-26T12:25:03.404Z,3.43
2019-06-26T12:27:34.494Z,3.37
2019-06-26T12:30:07.485Z,3.00
2019-06-26T12:32:42.433Z,3.62
2019-06-26T12:35:10.310Z,3.12
2019-06-26T12:37:41.155Z,3.95
2019-06-26T12:40:11.980Z,4.12
2019-06-26T12:42:42.970Z,3.10
2019-06-26T12:45:13.758Z,3.47
2019-06-26T12:47:44.401Z,3.40
2019-06-26T12:50:15.274Z,3.77
2019-06-26T12:52:45.936Z,3.30
2019-06-26T12:55:16.695Z,3.33
2019-06-26T12:57:47.355Z,2.90
2019-06-26T13:00:18.118Z,3.02
2019-06-26T13:02:48.799Z,2.77
2019-06-26T13:05:19.471Z,3.00
2019-06-26T13:07:50.933Z,2.42
2019-06-26T13:10:21.869Z,2.90
2019-06-26T13:12:52.588Z,2.70
2019-06-26T13:15:23.397Z,2.20
2019-06-26T13:17:54.121Z,2.75
2019-06-26T13:20:25.152Z,2.30
2019-06-26T13:22:55.897Z,2.52
2019-06-26T13:25:26.647Z,2.40
2019-06-26T13:27:57.701Z,1.75
2019-06-26T13:30:31.301Z,1.85
2019-06-26T13:33:02.930Z,1.80
2019-06-26T13:35:33.538Z,2.20
2019-06-26T13:38:04.261Z,2.12
2019-06-26T13:40:34.980Z,2.17
2019-06-26T13:43:05.639Z,1.67
2019-06-26T13:45:36.299Z,2.12
2019-06-26T13:48:07.030Z,2.47
2019-06-26T13:50:38.822Z,2.20
2019-06-26T13:53:09.805Z,2.20
2019-06-26T13:55:40.597Z,2.50
2019-06-26T13:58:11.273Z,2.50
2019-06-26T14:00:42.035Z,2.27
2019-06-26T14:03:12.772Z,2.00
2019-06-26T14:05:43.630Z,2.35
2019-06-26T14:08:14.309Z,2.30
2019-06-26T14:10:45.284Z,2.65
2019-06-26T14:13:15.913Z,2.40
2019-06-26T14:15:46.556Z,2.90
2019-06-26T14:18:18.890Z,2.30
2019-06-26T14:20:49.684Z,2.33
2019-06-26T14:23:20.390Z,3.00
2019-06-26T14:25:51.300Z,3.05
2019-06-26T14:28:22.225Z,3.37
2019-06-26T14:30:54.113Z,3.10
2019-06-26T14:33:24.862Z,3.40
2019-06-26T14:35:55.558Z,2.72
2019-06-26T14:38:26.236Z,2.60
2019-06-26T14:40:56.871Z,3.45
2019-06-26T14:43:27.708Z,3.00
2019-06-26T14:45:58.419Z,3.00
2019-06-26T14:48:29.153Z,3.72
2019-06-26T14:50:59.869Z,3.50
2019-06-26T14:53:31.516Z,3.40
2019-06-26T14:56:02.396Z,3.92
2019-06-26T14:58:36.203Z,4.22
2019-06-26T15:01:05.126Z,4.50
2019-06-26T15:03:35.868Z,4.50
2019-06-26T15:06:15.981Z,4.70
2019-06-26T15:08:38.596Z,4.17
2019-06-26T15:11:09.194Z,4.33
2019-06-26T15:13:39.901Z,3.92
2019-06-26T15:16:10.516Z,3.95
2019-06-26T15:18:41.164Z,3.90
2019-06-26T15:21:12.030Z,4.60
2019-06-26T15:23:42.684Z,3.98
2019-06-26T15:26:13.374Z,4.33
2019-06-26T15:28:44.510Z,4.47
2019-06-26T15:31:16.832Z,3.72
2019-06-26T15:33:47.633Z,4.37
2019-06-26T15:36:18.427Z,4.12
2019-06-26T15:38:49.180Z,4.47
2019-06-26T15:41:19.920Z,4.03
2019-06-26T15:43:50.674Z,3.98
2019-06-26T15:46:21.590Z,4.20
2019-06-26T15:48:52.206Z,3.92
2019-06-26T15:51:22.850Z,4.65
2019-06-26T15:53:53.474Z,4.12
2019-06-26T15:56:24.083Z,4.10
2019-06-26T15:58:54.867Z,4.25
2019-06-26T16:01:25.455Z,3.85
2019-06-26T16:03:56.119Z,4.33
2019-06-26T16:06:26.927Z,4.33
2019-06-26T16:08:57.645Z,4.70
2019-06-26T16:11:28.492Z,3.80
2019-06-26T16:14:00.585Z,4.08
2019-06-26T16:16:32.093Z,4.10
2019-06-26T16:19:04.164Z,4.30
2019-06-26T16:21:34.862Z,3.98
2019-06-26T16:24:05.928Z,3.90
2019-06-26T16:26:36.567Z,3.83
2019-06-26T16:29:07.635Z,3.55
2019-06-26T16:31:39.929Z,3.60
2019-06-26T16:34:10.668Z,3.70
2019-06-26T16:36:41.470Z,3.67
2019-06-26T16:39:12.112Z,3.80
2019-06-26T16:41:42.913Z,3.25
2019-06-26T16:44:13.600Z,3.65
2019-06-26T16:46:44.246Z,3.40
2019-06-26T16:49:15.056Z,3.72
2019-06-26T16:51:45.788Z,3.05
2019-06-26T16:54:16.484Z,2.80
2019-06-26T16:56:47.247Z,2.90
2019-06-26T16:59:17.849Z,2.58
2019-06-26T17:01:48.707Z,2.77
2019-06-26T17:04:19.429Z,2.00
2019-06-26T17:06:50.131Z,1.65
2019-06-26T17:09:20.940Z,2.20
2019-06-26T17:11:51.720Z,1.52
2019-06-26T17:14:22.502Z,2.05
2019-06-26T17:16:53.190Z,1.70
2019-06-26T17:19:24.071Z,1.35
2019-06-26T17:21:54.878Z,1.62
2019-06-26T17:24:25.619Z,1.00
2019-06-26T17:26:59.311Z,1.00
2019-06-26T17:29:28.729Z,1.40
2019-06-26T17:32:00.867Z,1.15
2019-06-26T17:34:31.575Z,1.00
2019-06-26T17:37:02.447Z,0.75
2019-06-26T17:39:33.231Z,0.78
2019-06-26T17:42:03.908Z,1.98
2019-06-26T17:44:34.577Z,0.80
2019-06-26T17:47:05.581Z,1.05
2019-06-26T17:49:36.402Z,0.78
2019-06-26T17:52:07.103Z,1.27
2019-06-26T17:54:37.911Z,1.10
2019-06-26T17:57:08.687Z,0.80
2019-06-26T17:59:39.364Z,0.60
2019-06-26T18:02:10.159Z,0.78
2019-06-26T18:04:40.933Z,0.53
2019-06-26T18:07:11.617Z,1.07
2019-06-26T18:09:42.306Z,0.72
2019-06-26T18:12:12.940Z,0.62
2019-06-26T18:14:43.705Z,0.60
2019-06-26T18:17:22.195Z,0.60
2019-06-26T18:19:46.296Z,0.50
2019-06-26T18:22:16.986Z,0.88
2019-06-26T18:24:47.642Z,0.53
2019-06-26T18:27:18.555Z,0.50
2019-06-26T18:29:49.733Z,0.40
2019-06-26T18:32:21.150Z,0.40
2019-06-26T18:34:51.951Z,0.50
2019-06-26T18:37:22.693Z,0.40
2019-06-26T18:39:53.506Z,0.70
2019-06-26T18:42:24.236Z,0.60
2019-06-26T18:44:54.901Z,0.50
2019-06-26T18:47:25.515Z,0.42
2019-06-26T18:49:56.171Z,0.40
2019-06-26T18:52:26.938Z,0.55
2019-06-26T18:54:57.550Z,0.70
2019-06-26T18:57:28.220Z,0.35
2019-06-26T18:59:58.833Z,0.47
2019-06-26T19:02:29.461Z,0.78
2019-06-26T19:05:00.184Z,0.57
2019-06-26T19:07:30.846Z,0.60
2019-06-26T19:10:01.536Z,0.60
2019-06-26T19:12:32.318Z,0.50
2019-06-26T19:15:03.053Z,0.57
2019-06-26T19:17:33.880Z,0.70
2019-06-26T19:20:04.844Z,0.55
2019-06-26T19:22:35.472Z,0.70
2019-06-26T19:25:07.496Z,0.50
2019-06-26T19:27:38.085Z,0.87
2019-06-26T19:30:09.979Z,0.70
2019-06-26T19:32:42.184Z,0.80
2019-06-26T19:35:20.367Z,0.65
2019-06-26T19:37:44.942Z,1.02
2019-06-26T19:40:15.721Z,0.80
2019-06-26T19:42:46.473Z,0.60
2019-06-26T19:45:17.232Z,0.90
2019-06-26T19:47:47.955Z,0.57
2019-06-26T19:50:18.601Z,0.80
2019-06-26T19:52:49.235Z,0.90
2019-06-26T19:55:20.018Z,0.72
2019-06-26T19:57:50.816Z,1.80
2019-06-26T20:00:21.779Z,1.20
2019-06-26T20:02:52.444Z,1.27
2019-06-26T20:05:23.160Z,1.20
2019-06-26T20:07:54.048Z,0.82
2019-06-26T20:10:24.717Z,1.07
2019-06-26T20:12:55.344Z,1.02
2019-06-26T20:15:26.041Z,1.40
2019-06-26T20:17:56.650Z,1.42
2019-06-26T20:20:27.441Z,1.10
2019-06-26T20:22:58.152Z,2.22
2019-06-26T20:25:28.868Z,1.00
2019-06-26T20:27:59.535Z,1.30
2019-06-26T20:30:33.162Z,1.15
2019-06-26T20:33:05.349Z,0.85
2019-06-26T20:35:38.826Z,1.10
2019-06-26T20:38:07.914Z,1.20
2019-06-26T20:40:38.570Z,1.45
2019-06-26T20:43:09.269Z,1.10
2019-06-26T20:45:39.946Z,1.45
2019-06-26T20:48:10.688Z,1.00
2019-06-26T20:50:41.435Z,0.88
2019-06-26T20:53:12.175Z,1.35
2019-06-26T20:55:42.871Z,1.50
2019-06-26T20:58:13.561Z,1.05
2019-06-26T21:00:44.170Z,1.17
2019-06-26T21:03:14.833Z,0.93
2019-06-26T21:05:45.570Z,1.20
2019-06-26T21:08:16.265Z,1.22
2019-06-26T21:10:47.011Z,1.30
2019-06-26T21:13:17.752Z,1.27
2019-06-26T21:15:48.384Z,1.20
2019-06-26T21:18:19.149Z,1.10
2019-06-26T21:20:49.889Z,1.20
2019-06-26T21:23:23.286Z,1.20
2019-06-26T21:25:52.543Z,1.23
2019-06-26T21:28:23.189Z,1.50
2019-06-26T21:30:54.343Z,1.45
2019-06-26T21:33:26.565Z,1.80
2019-06-26T21:35:57.222Z,1.20
2019-06-26T21:38:27.873Z,1.42
2019-06-26T21:40:58.474Z,1.45
2019-06-26T21:43:29.485Z,1.30
2019-06-26T21:46:00.081Z,1.47
2019-06-26T21:48:30.776Z,1.42
2019-06-26T21:51:01.521Z,1.30
2019-06-26T21:53:32.201Z,1.40
2019-06-26T21:56:03.047Z,1.45
2019-06-26T21:58:33.749Z,1.70
2019-06-26T22:01:07.295Z,1.20
2019-06-26T22:03:37.996Z,1.87
2019-06-26T22:06:08.656Z,1.40
2019-06-26T22:08:39.268Z,1.85
2019-06-26T22:11:09.954Z,1.60
2019-06-26T22:13:40.749Z,1.42
2019-06-26T22:16:11.349Z,1.67
2019-06-26T22:18:41.961Z,1.82
2019-06-26T22:21:12.590Z,2.12
2019-06-26T22:23:43.194Z,1.70
2019-06-26T22:26:14.445Z,1.32
2019-06-26T22:28:45.231Z,1.70
2019-06-26T22:31:16.234Z,1.98
2019-06-26T22:33:48.138Z,1.45
2019-06-26T22:36:18.749Z,1.82
2019-06-26T22:38:49.457Z,1.98
2019-06-26T22:41:20.071Z,2.33
2019-06-26T22:43:50.677Z,1.98
2019-06-26T22:46:21.305Z,2.27
2019-06-26T22:48:51.913Z,1.80
2019-06-26T22:51:22.638Z,1.65
2019-06-26T22:53:53.253Z,1.90
2019-06-26T22:56:23.858Z,1.82
2019-06-26T22:58:54.492Z,2.20
2019-06-26T23:01:25.098Z,2.10
2019-06-26T23:03:55.828Z,2.25
2019-06-26T23:06:26.439Z,1.72
2019-06-26T23:08:57.048Z,1.80
2019-06-26T23:11:27.678Z,1.75
2019-06-26T23:13:58.283Z,2.25
2019-06-26T23:16:29.011Z,2.08
2019-06-26T23:18:59.618Z,2.10
2019-06-26T23:21:30.275Z,1.90
2019-06-26T23:24:00.959Z,2.00
2019-06-26T23:26:31.578Z,1.92
2019-06-26T23:29:02.306Z,1.85
2019-06-26T23:31:33.119Z,2.22
2019-06-26T23:34:06.577Z,2.20
2019-06-26T23:36:37.179Z,1.67
2019-06-26T23:39:07.989Z,1.98
2019-06-26T23:41:38.625Z,2.65
2019-06-26T23:44:09.232Z,2.58
2019-06-26T23:46:40.134Z,4.20
2019-06-26T23:49:10.738Z,2.20
2019-06-26T23:51:41.346Z,2.67
2019-06-26T23:54:11.971Z,1.77
2019-06-26T23:56:42.585Z,2.00
2019-06-26T23:59:13.301Z,2.27
